Terminal Aerodrome Forecast
Issued by NWS Portland, OR

Home | Current Version | Previous Version | Text Only | Print | Product List | Glossary On
Versions: 1 2 3 4 5 6 7 8 9 10 11 12 13 14 15 16 17 18 19 20 21 22 23 24 25 26
393
FTUS46 KPQR 220528
TAFSLE
TAF
KSLE 220528Z 2206/2306 17009KT P6SM OVC050
     FM221100 18010KT P6SM -RA SCT025 OVC040
     FM221800 18017G23KT P6SM -SHRA SCT030 OVC070
     FM230000 20010KT P6SM OVC250=

USA.gov is the U.S. government's official web portal to all federal, state and local government web resources and services.